Harbor Princess — WCX8036 — position and weather

sailwx.info

Track history (hours):
 
Tides and Currents Weather Stations Pressure Air Temp Water Temp Dewpoint Dewpoint Depression Visibility Wind Speed Wind Dir Waves Ship Positions

Harbor Princess

Owner: Golden Gate Scenic Steamship Corp, SAN FRANCISCO, CA. More information available from US FCC via Universal Licensing System and Coast Guard Vessel Documentation Center.

Last reported at 2018-Jun-21 20:15 UTC. Time now 2018-Jun-21 21:27 UTC.
Position N 37°49' W 122°25'.

Length 25 m; draft 2.8 m.

Type: Passenger vessel. MMSI: 366975750.

Date/timePositionNaut miles runAvg speedWind from/ knotsBaromVisibWave heightAir tempDewpointWater temp
2018-Jun-21 20:15N 37°49' W 122°25'0 1.0
2018-Jun-21 20:00N 37°49' W 122°25'1 1.8
2018-Jun-21 19:30N 37°49' W 122°25'2 3.4
2018-Jun-21 19:00N 37°49' W 122°27'2 3.5
2018-Jun-21 18:30N 37°49' W 122°25'0 0.5
2018-Jun-21 18:00N 37°49' W 122°25'0 0.0
2018-Jun-21 17:30N 37°49' W 122°25'  
2018-Jun-17 02:51N 37°49' W 122°25'0 0.8
2018-Jun-17 02:30N 37°49' W 122°25'1 1.3
2018-Jun-17 02:00N 37°49' W 122°24'1 2.6
2018-Jun-17 01:30N 37°50' W 122°25'2 4.1
2018-Jun-17 01:01N 37°49' W 122°28'2 4.2
2018-Jun-17 00:30N 37°49' W 122°25'1 2.2
2018-Jun-17 00:00N 37°50' W 122°25'1 2.7
2018-Jun-16 23:30N 37°49' W 122°27'1 2.8
2018-Jun-16 23:00N 37°49' W 122°25'3 5.3
2018-Jun-16 22:30N 37°49' W 122°28'3 5.3
2018-Jun-16 22:00N 37°49' W 122°25'1 2.1
2018-Jun-16 21:30N 37°50' W 122°25'1 2.9
2018-Jun-16 21:00N 37°49' W 122°27'2 3.1
2018-Jun-16 20:30N 37°49' W 122°25'0 0.0
2018-Jun-16 20:00N 37°49' W 122°25'1 1.9
2018-Jun-16 19:30N 37°49' W 122°25'1 2.9
2018-Jun-16 19:00N 37°49' W 122°27'2 3.2
2018-Jun-16 18:30N 37°49' W 122°25'0 0.0
2018-Jun-16 18:00N 37°49' W 122°25'0 0.3
2018-Jun-16 17:30N 37°49' W 122°25'  
2018-Jun-13 02:37N 37°49' W 122°25'0 0.0
2018-Jun-13 02:30N 37°49' W 122°25'1 1.6
2018-Jun-13 02:00N 37°49' W 122°24'1 2.1
2018-Jun-13 01:30N 37°49' W 122°25'2 3.3
2018-Jun-13 01:00N 37°49' W 122°27'2 3.3
2018-Jun-13 00:30N 37°49' W 122°25'1 1.7
2018-Jun-13 00:00N 37°49' W 122°25'2 3.9
2018-Jun-12 23:30N 37°49' W 122°27'2 3.9
2018-Jun-12 23:00N 37°49' W 122°25'2 4.2
2018-Jun-12 22:30N 37°50' W 122°27'2 4.1
2018-Jun-12 22:00N 37°49' W 122°25'1 1.3
2018-Jun-12 21:30N 37°49' W 122°24'3 5.8
2018-Jun-12 21:00N 37°49' W 122°28'3 5.1
2018-Jun-12 20:30N 37°49' W 122°25'0 0.0
2018-Jun-12 20:00N 37°49' W 122°25'1 1.6
2018-Jun-12 19:30N 37°49' W 122°25'2 3.2
2018-Jun-12 19:00N 37°49' W 122°27'2 3.2
2018-Jun-12 18:30N 37°49' W 122°25'  
Track history (hours):
 
Tides and Currents Weather Stations Pressure Air Temp Water Temp Dewpoint Dewpoint Depression Visibility Wind Speed Wind Dir Waves Ship Positions

Harbor Princess

Owner: Golden Gate Scenic Steamship Corp, SAN FRANCISCO, CA. More information available from US FCC via Universal Licensing System and Coast Guard Vessel Documentation Center.

Last reported at 2018-Jun-21 20:15 UTC. Time now 2018-Jun-21 21:27 UTC.
Position N 37°49' W 122°25'.

Length 25 m; draft 2.8 m.

Type: Passenger vessel. MMSI: 366975750.

Date/timePositionNaut miles runAvg speedWind from/ knotsBaromVisibWave heightAir tempDewpointWater temp
2018-Jun-21 20:15N 37°49' W 122°25'0 1.0
2018-Jun-21 20:00N 37°49' W 122°25'1 1.8
2018-Jun-21 19:30N 37°49' W 122°25'2 3.4
2018-Jun-21 19:00N 37°49' W 122°27'2 3.5
2018-Jun-21 18:30N 37°49' W 122°25'0 0.5
2018-Jun-21 18:00N 37°49' W 122°25'0 0.0
2018-Jun-21 17:30N 37°49' W 122°25'  
2018-Jun-17 02:51N 37°49' W 122°25'0 0.8
2018-Jun-17 02:30N 37°49' W 122°25'1 1.3
2018-Jun-17 02:00N 37°49' W 122°24'1 2.6
2018-Jun-17 01:30N 37°50' W 122°25'2 4.1
2018-Jun-17 01:01N 37°49' W 122°28'2 4.2
2018-Jun-17 00:30N 37°49' W 122°25'1 2.2
2018-Jun-17 00:00N 37°50' W 122°25'1 2.7
2018-Jun-16 23:30N 37°49' W 122°27'1 2.8
2018-Jun-16 23:00N 37°49' W 122°25'3 5.3
2018-Jun-16 22:30N 37°49' W 122°28'3 5.3
2018-Jun-16 22:00N 37°49' W 122°25'1 2.1
2018-Jun-16 21:30N 37°50' W 122°25'1 2.9
2018-Jun-16 21:00N 37°49' W 122°27'2 3.1
2018-Jun-16 20:30N 37°49' W 122°25'0 0.0
2018-Jun-16 20:00N 37°49' W 122°25'1 1.9
2018-Jun-16 19:30N 37°49' W 122°25'1 2.9
2018-Jun-16 19:00N 37°49' W 122°27'2 3.2
2018-Jun-16 18:30N 37°49' W 122°25'0 0.0
2018-Jun-16 18:00N 37°49' W 122°25'0 0.3
2018-Jun-16 17:30N 37°49' W 122°25'  
2018-Jun-13 02:37N 37°49' W 122°25'0 0.0
2018-Jun-13 02:30N 37°49' W 122°25'1 1.6
2018-Jun-13 02:00N 37°49' W 122°24'1 2.1
2018-Jun-13 01:30N 37°49' W 122°25'2 3.3
2018-Jun-13 01:00N 37°49' W 122°27'2 3.3
2018-Jun-13 00:30N 37°49' W 122°25'1 1.7
2018-Jun-13 00:00N 37°49' W 122°25'2 3.9
2018-Jun-12 23:30N 37°49' W 122°27'2 3.9
2018-Jun-12 23:00N 37°49' W 122°25'2 4.2
2018-Jun-12 22:30N 37°50' W 122°27'2 4.1
2018-Jun-12 22:00N 37°49' W 122°25'1 1.3
2018-Jun-12 21:30N 37°49' W 122°24'3 5.8
2018-Jun-12 21:00N 37°49' W 122°28'3 5.1
2018-Jun-12 20:30N 37°49' W 122°25'0 0.0
2018-Jun-12 20:00N 37°49' W 122°25'1 1.6
2018-Jun-12 19:30N 37°49' W 122°25'2 3.2
2018-Jun-12 19:00N 37°49' W 122°27'2 3.2
2018-Jun-12 18:30N 37°49' W 122°25'  

Dump ship's entire track history